Time;durP1;ratioP1;P1;durP2;ratioP2;P2;SDS_P1;SDS_P2;PMS_P1;PMS_P2;Temp;Humidity;BMP_temperature;BMP_pressure;BME280_temperature;BME280_humidity;BME280_pressure;Samples;Min_cycle;Max_cycle;Signal;HPM_P1;HPM_P2
2023/07/09 00:02:12;;;;;;;15.10;8.50;;;;;;;;;;5093708;28;20463;-73
2023/07/09 00:04:39;;;;;;;13.27;9.23;;;;;;;;;;5093947;28;20447;-73
2023/07/09 00:07:13;;;;;;;10.77;8.93;;;;;;;;;;5093576;28;20454;-73
2023/07/09 00:09:40;;;;;;;11.70;8.50;;;;;;;;;;5093821;28;20457;-73
2023/07/09 00:12:09;;;;;;;11.60;7.83;;;;;;;;;;5093375;28;20497;-72
2023/07/09 00:14:36;;;;;;;13.27;9.53;;;;;;;;;;5093588;28;20454;-72
2023/07/09 00:17:03;;;;;;;11.03;8.47;;;;;;;;;;5093716;28;20794;-73
2023/07/09 00:19:30;;;;;;;11.77;8.80;;;;;;;;;;5093809;28;20512;-73
2023/07/09 00:21:57;;;;;;;12.87;9.40;;;;;;;;;;5093692;28;20458;-73
2023/07/09 00:24:26;;;;;;;10.00;7.63;;;;;;;;;;5093623;28;20459;-73
2023/07/09 00:26:54;;;;;;;13.20;8.70;;;;;;;;;;5093646;28;20451;-73
2023/07/09 00:29:21;;;;;;;11.00;8.90;;;;;;;;;;5093260;28;20450;-73
2023/07/09 00:31:48;;;;;;;13.03;8.90;;;;;;;;;;5093357;28;20497;-73
2023/07/09 00:34:21;;;;;;;9.40;7.93;;;;;;;;;;5093166;28;20450;-73
2023/07/09 00:36:50;;;;;;;9.37;7.93;;;;;;;;;;5093483;28;21019;-73
2023/07/09 00:39:18;;;;;;;12.07;9.53;;;;;;;;;;5093193;28;20508;-73
2023/07/09 00:41:47;;;;;;;10.50;8.27;;;;;;;;;;5093401;28;21040;-73
2023/07/09 00:44:40;;;;;;;13.90;8.70;;;;;;;;;;5093362;28;20927;-73
2023/07/09 00:47:25;;;;;;;11.50;8.33;;;;;;;;;;5078571;28;20462;-73
2023/07/09 00:49:57;;;;;;;16.50;8.43;;;;;;;;;;5093461;28;20442;-73
2023/07/09 00:52:29;;;;;;;10.57;7.43;;;;;;;;;;5092913;28;20631;-72
2023/07/09 00:54:57;;;;;;;9.87;8.50;;;;;;;;;;5093383;28;20454;-73
2023/07/09 00:57:27;;;;;;;10.63;7.40;;;;;;;;;;5093030;28;20955;-73
2023/07/09 00:59:56;;;;;;;15.63;8.50;;;;;;;;;;5092960;28;20528;-73
2023/07/09 01:02:24;;;;;;;11.37;8.53;;;;;;;;;;5093008;28;20492;-73
2023/07/09 01:04:51;;;;;;;10.57;8.27;;;;;;;;;;5093277;28;20529;-73
2023/07/09 01:07:19;;;;;;;12.90;7.83;;;;;;;;;;5092861;28;20455;-73
2023/07/09 01:09:46;;;;;;;11.63;8.27;;;;;;;;;;5093230;28;21033;-73
2023/07/09 01:12:15;;;;;;;11.87;8.43;;;;;;;;;;5093224;28;20513;-73
2023/07/09 01:14:51;;;;;;;12.10;8.20;;;;;;;;;;5094431;28;20481;-73
2023/07/09 01:17:18;;;;;;;10.33;7.70;;;;;;;;;;5096825;28;20479;-73
2023/07/09 01:19:46;;;;;;;13.40;8.57;;;;;;;;;;5096861;28;20494;-72
2023/07/09 01:22:15;;;;;;;14.27;8.40;;;;;;;;;;5096773;28;20460;-73
2023/07/09 01:25:03;;;;;;;13.03;9.30;;;;;;;;;;5096851;28;20457;-73
2023/07/09 01:27:33;;;;;;;12.60;8.27;;;;;;;;;;5091780;28;20469;-73
2023/07/09 01:30:00;;;;;;;14.67;10.27;;;;;;;;;;5096923;28;20457;-73
2023/07/09 01:32:27;;;;;;;14.10;9.10;;;;;;;;;;5096529;28;20482;-73
2023/07/09 01:34:56;;;;;;;10.67;9.00;;;;;;;;;;5096683;28;20768;-73
2023/07/09 01:37:25;;;;;;;16.43;9.13;;;;;;;;;;5096730;28;20454;-73
2023/07/09 01:39:54;;;;;;;16.67;9.20;;;;;;;;;;5096574;28;20443;-73
2023/07/09 01:42:22;;;;;;;11.17;8.40;;;;;;;;;;5096463;28;20454;-73
2023/07/09 01:44:50;;;;;;;14.43;10.17;;;;;;;;;;5096396;28;20447;-73
2023/07/09 01:47:17;;;;;;;9.83;8.83;;;;;;;;;;5096410;28;21002;-73
2023/07/09 01:49:46;;;;;;;14.10;10.03;;;;;;;;;;5096250;28;20499;-73
2023/07/09 01:52:14;;;;;;;21.07;11.07;;;;;;;;;;5096543;28;20483;-73
2023/07/09 01:54:49;;;;;;;11.80;9.17;;;;;;;;;;5096195;28;20450;-73
2023/07/09 01:57:19;;;;;;;14.20;9.30;;;;;;;;;;5095997;28;20460;-73
2023/07/09 01:59:47;;;;;;;11.03;9.00;;;;;;;;;;5096224;28;20450;-73
2023/07/09 02:02:18;;;;;;;11.40;8.30;;;;;;;;;;5096142;28;20457;-73
2023/07/09 02:04:45;;;;;;;11.80;8.67;;;;;;;;;;5095539;28;20459;-73
2023/07/09 02:07:13;;;;;;;13.53;10.40;;;;;;;;;;5095745;28;20450;-73
2023/07/09 02:09:40;;;;;;;14.20;10.30;;;;;;;;;;5095664;28;20817;-73
2023/07/09 02:12:09;;;;;;;13.00;9.07;;;;;;;;;;5095320;28;20482;-73
2023/07/09 02:14:36;;;;;;;11.70;8.13;;;;;;;;;;5095844;28;20461;-73
2023/07/09 02:17:03;;;;;;;17.90;9.37;;;;;;;;;;5095696;28;20462;-73
2023/07/09 02:19:30;;;;;;;14.03;8.30;;;;;;;;;;5095458;28;20561;-73
2023/07/09 02:21:58;;;;;;;12.40;9.10;;;;;;;;;;5095738;28;20959;-73
2023/07/09 02:24:26;;;;;;;11.60;8.80;;;;;;;;;;5095502;28;20451;-73
2023/07/09 02:26:54;;;;;;;14.60;9.97;;;;;;;;;;5094201;28;20531;-73
2023/07/09 02:29:22;;;;;;;10.67;8.67;;;;;;;;;;5095810;28;20462;-73
2023/07/09 02:31:50;;;;;;;13.30;8.57;;;;;;;;;;5095193;28;20470;-73
2023/07/09 02:34:17;;;;;;;12.20;8.40;;;;;;;;;;5095227;28;20829;-73
2023/07/09 02:36:45;;;;;;;11.03;8.63;;;;;;;;;;5095222;28;20455;-73
2023/07/09 02:39:12;;;;;;;12.73;9.13;;;;;;;;;;5095542;28;20454;-73
2023/07/09 02:41:39;;;;;;;11.23;8.83;;;;;;;;;;5095187;28;20475;-73
2023/07/09 02:44:07;;;;;;;19.03;9.40;;;;;;;;;;5095135;28;20443;-73
2023/07/09 02:46:35;;;;;;;9.60;8.07;;;;;;;;;;5095232;28;20461;-73
2023/07/09 02:49:04;;;;;;;11.10;8.27;;;;;;;;;;5095032;28;20450;-73
2023/07/09 02:51:31;;;;;;;10.37;9.30;;;;;;;;;;5094872;28;20836;-73
2023/07/09 02:53:59;;;;;;;10.60;8.17;;;;;;;;;;5094881;28;20486;-73
2023/07/09 02:56:26;;;;;;;11.80;9.57;;;;;;;;;;5095177;28;20450;-73
2023/07/09 02:58:53;;;;;;;15.23;10.00;;;;;;;;;;5094985;28;20492;-73
2023/07/09 03:01:24;;;;;;;15.80;9.83;;;;;;;;;;5094839;28;20847;-73
2023/07/09 03:03:53;;;;;;;15.30;10.30;;;;;;;;;;5094685;28;20503;-73
2023/07/09 03:06:21;;;;;;;15.00;10.23;;;;;;;;;;5094131;28;20855;-73
2023/07/09 03:08:48;;;;;;;14.27;10.10;;;;;;;;;;5094747;28;20815;-73
2023/07/09 03:11:16;;;;;;;13.83;9.57;;;;;;;;;;5094475;28;20523;-72
2023/07/09 03:13:44;;;;;;;14.20;10.00;;;;;;;;;;5094363;28;20494;-73
2023/07/09 03:16:11;;;;;;;16.40;10.40;;;;;;;;;;5094316;28;20454;-73
2023/07/09 03:18:38;;;;;;;14.90;11.23;;;;;;;;;;5093667;28;20465;-73
2023/07/09 03:21:07;;;;;;;11.37;9.57;;;;;;;;;;5093601;28;20486;-73
2023/07/09 03:23:34;;;;;;;14.30;10.00;;;;;;;;;;5094013;28;20958;-72
2023/07/09 03:26:01;;;;;;;12.63;10.27;;;;;;;;;;5093787;28;20550;-73
2023/07/09 03:28:28;;;;;;;13.07;9.03;;;;;;;;;;5093587;28;20459;-73
2023/07/09 03:30:56;;;;;;;14.07;9.17;;;;;;;;;;5093729;28;20469;-73
2023/07/09 03:33:24;;;;;;;11.00;7.90;;;;;;;;;;5093486;28;21024;-72
2023/07/09 03:35:51;;;;;;;10.90;9.27;;;;;;;;;;5093809;28;20454;-72
2023/07/09 03:38:20;;;;;;;14.60;10.20;;;;;;;;;;5093180;28;20454;-72
2023/07/09 03:40:47;;;;;;;12.40;8.00;;;;;;;;;;5093295;28;20471;-73
2023/07/09 03:43:14;;;;;;;11.53;8.90;;;;;;;;;;5093992;28;20443;-72
2023/07/09 03:45:41;;;;;;;12.63;9.90;;;;;;;;;;5093163;28;20828;-73
2023/07/09 03:48:10;;;;;;;11.07;8.47;;;;;;;;;;5093543;28;20462;-73
2023/07/09 03:50:37;;;;;;;11.40;7.60;;;;;;;;;;5093169;28;20467;-73
2023/07/09 03:53:05;;;;;;;14.03;10.23;;;;;;;;;;5093174;28;20847;-73
2023/07/09 03:55:33;;;;;;;11.10;9.50;;;;;;;;;;5093111;28;20898;-73
2023/07/09 03:58:02;;;;;;;11.37;8.50;;;;;;;;;;5093031;28;20965;-73
2023/07/09 04:00:29;;;;;;;10.97;8.43;;;;;;;;;;5093183;28;20539;-73
2023/07/09 04:02:57;;;;;;;10.13;7.30;;;;;;;;;;5093689;28;20447;-73
2023/07/09 04:05:24;;;;;;;10.80;7.60;;;;;;;;;;5093229;28;20450;-73
2023/07/09 04:07:51;;;;;;;9.23;7.33;;;;;;;;;;5092895;28;20930;-73
2023/07/09 04:10:19;;;;;;;9.30;7.00;;;;;;;;;;5092702;28;20471;-73
2023/07/09 04:12:47;;;;;;;11.50;6.60;;;;;;;;;;5092773;28;20485;-73
2023/07/09 04:15:14;;;;;;;10.43;7.13;;;;;;;;;;5093067;28;20534;-73
2023/07/09 04:17:42;;;;;;;10.90;9.33;;;;;;;;;;5092640;28;20459;-73
2023/07/09 04:20:10;;;;;;;10.50;7.50;;;;;;;;;;5092569;28;20490;-73
2023/07/09 04:22:37;;;;;;;7.47;5.70;;;;;;;;;;5092733;28;20532;-73
2023/07/09 04:25:06;;;;;;;7.67;5.60;;;;;;;;;;5092752;28;20450;-73
2023/07/09 04:27:33;;;;;;;7.90;6.07;;;;;;;;;;5092909;28;20458;-74
2023/07/09 04:30:04;;;;;;;7.20;6.10;;;;;;;;;;5092567;28;20451;-73
2023/07/09 04:32:32;;;;;;;9.70;6.10;;;;;;;;;;5092684;28;20999;-73
2023/07/09 04:34:59;;;;;;;7.93;5.03;;;;;;;;;;5092501;28;20455;-73
2023/07/09 04:37:26;;;;;;;9.70;5.80;;;;;;;;;;5092782;28;20819;-73
2023/07/09 04:39:53;;;;;;;8.07;6.33;;;;;;;;;;5092729;28;20442;-73
2023/07/09 04:42:20;;;;;;;9.23;5.87;;;;;;;;;;5092658;28;20457;-73
2023/07/09 04:44:48;;;;;;;8.20;5.90;;;;;;;;;;5092616;28;20465;-73
2023/07/09 04:47:16;;;;;;;7.43;5.70;;;;;;;;;;5092337;28;20473;-73
2023/07/09 04:49:44;;;;;;;6.87;5.27;;;;;;;;;;5093744;28;20454;-73
2023/07/09 04:52:11;;;;;;;7.83;6.97;;;;;;;;;;5096423;28;20470;-73
2023/07/09 04:54:39;;;;;;;8.47;6.40;;;;;;;;;;5096279;28;20554;-73
2023/07/09 04:57:07;;;;;;;6.13;5.40;;;;;;;;;;5096481;28;20480;-73
2023/07/09 04:59:34;;;;;;;8.60;5.77;;;;;;;;;;5096896;28;20474;-74
2023/07/09 05:02:01;;;;;;;7.80;5.70;;;;;;;;;;5097115;28;20467;-73
2023/07/09 05:04:30;;;;;;;6.87;5.90;;;;;;;;;;5096811;28;20446;-74
2023/07/09 05:06:58;;;;;;;6.27;5.50;;;;;;;;;;5096779;28;20461;-74
2023/07/09 05:09:25;;;;;;;8.17;7.37;;;;;;;;;;5096570;28;20464;-73
2023/07/09 05:11:53;;;;;;;6.47;5.87;;;;;;;;;;5097143;28;20462;-73
2023/07/09 05:14:20;;;;;;;7.87;5.47;;;;;;;;;;5096546;28;21010;-73
2023/07/09 05:16:47;;;;;;;6.23;5.03;;;;;;;;;;5096885;28;20458;-73
2023/07/09 05:19:14;;;;;;;7.07;5.50;;;;;;;;;;5096463;28;20457;-74
2023/07/09 05:21:43;;;;;;;8.60;5.20;;;;;;;;;;5096332;28;20468;-74
2023/07/09 05:24:10;;;;;;;6.90;6.20;;;;;;;;;;5096539;28;20457;-73
2023/07/09 05:26:37;;;;;;;8.80;6.90;;;;;;;;;;5096091;28;20450;-71
2023/07/09 05:29:05;;;;;;;6.03;5.27;;;;;;;;;;5095787;28;20453;-73
2023/07/09 05:31:32;;;;;;;6.27;5.63;;;;;;;;;;5095552;28;20470;-73
2023/07/09 05:34:00;;;;;;;7.00;5.30;;;;;;;;;;5096027;28;20504;-71
2023/07/09 05:36:28;;;;;;;5.63;5.00;;;;;;;;;;5095953;28;20468;-71
2023/07/09 05:38:56;;;;;;;10.03;5.60;;;;;;;;;;5095571;28;20454;-71
2023/07/09 05:41:24;;;;;;;11.93;5.80;;;;;;;;;;5095720;28;20984;-71
2023/07/09 05:43:51;;;;;;;8.10;4.80;;;;;;;;;;5095816;28;20763;-71
2023/07/09 05:46:19;;;;;;;8.90;5.97;;;;;;;;;;5095778;28;20452;-73
2023/07/09 05:48:46;;;;;;;9.80;6.00;;;;;;;;;;5095414;28;20450;-71
2023/07/09 05:51:13;;;;;;;5.60;4.97;;;;;;;;;;5095363;28;20466;-72
2023/07/09 05:53:40;;;;;;;8.03;5.23;;;;;;;;;;5095641;28;20477;-72
2023/07/09 05:56:09;;;;;;;5.30;4.80;;;;;;;;;;5095653;28;20942;-72
2023/07/09 05:58:36;;;;;;;5.77;4.90;;;;;;;;;;5095421;28;20449;-72
2023/07/09 06:01:03;;;;;;;5.20;4.70;;;;;;;;;;5095151;28;20466;-72
2023/07/09 06:03:31;;;;;;;9.47;5.40;;;;;;;;;;5095122;28;20464;-72
2023/07/09 06:05:59;;;;;;;6.57;5.47;;;;;;;;;;5095193;28;20450;-72
2023/07/09 06:08:27;;;;;;;8.93;6.50;;;;;;;;;;5095033;28;20917;-72
2023/07/09 06:10:55;;;;;;;5.43;4.90;;;;;;;;;;5090071;28;20471;-72
2023/07/09 06:13:24;;;;;;;7.70;6.17;;;;;;;;;;5079012;28;20542;-72
2023/07/09 06:15:52;;;;;;;8.00;5.83;;;;;;;;;;5093571;28;20489;-72
2023/07/09 06:18:19;;;;;;;13.23;6.13;;;;;;;;;;5093539;28;20460;-72
2023/07/09 06:20:50;;;;;;;6.83;5.40;;;;;;;;;;5093521;28;20856;-72
2023/07/09 06:23:17;;;;;;;6.00;5.50;;;;;;;;;;5093822;28;20981;-74
2023/07/09 06:25:47;;;;;;;6.40;5.80;;;;;;;;;;5092924;28;20825;-74
2023/07/09 06:28:14;;;;;;;6.30;5.40;;;;;;;;;;5093116;28;20469;-73
2023/07/09 06:30:43;;;;;;;10.13;6.13;;;;;;;;;;5092754;28;20477;-73
2023/07/09 06:33:10;;;;;;;10.03;5.33;;;;;;;;;;5092870;28;20579;-73
2023/07/09 06:35:37;;;;;;;5.70;5.20;;;;;;;;;;5093464;28;20348;-73
2023/07/09 06:38:04;;;;;;;6.10;5.17;;;;;;;;;;5092933;28;20677;-73
2023/07/09 06:40:31;;;;;;;8.33;5.03;;;;;;;;;;5092738;28;20232;-73
2023/07/09 06:42:58;;;;;;;6.90;5.60;;;;;;;;;;5092777;28;20211;-73
2023/07/09 06:45:26;;;;;;;5.13;4.63;;;;;;;;;;5092542;28;20687;-73
2023/07/09 06:47:54;;;;;;;6.07;5.47;;;;;;;;;;5092492;28;20219;-73
2023/07/09 06:50:21;;;;;;;7.07;5.20;;;;;;;;;;5092676;28;20232;-74
2023/07/09 06:52:48;;;;;;;6.40;5.80;;;;;;;;;;5092533;28;20565;-74
2023/07/09 06:55:15;;;;;;;5.80;5.20;;;;;;;;;;5092155;28;20235;-75
2023/07/09 06:57:43;;;;;;;5.50;4.90;;;;;;;;;;5087817;28;20267;-73
2023/07/09 07:00:10;;;;;;;6.80;6.10;;;;;;;;;;5092578;28;20224;-73
2023/07/09 07:02:37;;;;;;;6.00;5.07;;;;;;;;;;5092181;28;20215;-73
2023/07/09 07:05:06;;;;;;;6.20;5.70;;;;;;;;;;5092366;28;20199;-73
2023/07/09 07:07:33;;;;;;;5.83;5.30;;;;;;;;;;5092337;28;20208;-73
2023/07/09 07:10:00;;;;;;;5.50;5.00;;;;;;;;;;5092643;28;20208;-73
2023/07/09 07:12:28;;;;;;;7.75;6.32;;;;;;;;;;5077118;28;20204;-75
2023/07/09 07:14:56;;;;;;;5.82;5.22;;;;;;;;;;5072184;28;20260;-74
2023/07/09 07:17:24;;;;;;;6.80;5.88;;;;;;;;;;5071739;28;20213;-73
2023/07/09 07:19:52;;;;;;;6.40;5.70;;;;;;;;;;5071964;28;20590;-75
2023/07/09 07:22:20;;;;;;;6.60;5.15;;;;;;;;;;5071854;28;20213;-73
2023/07/09 07:24:47;;;;;;;7.63;5.63;;;;;;;;;;5071815;28;20213;-73
2023/07/09 07:27:14;;;;;;;7.72;6.18;;;;;;;;;;5071656;28;20304;-73
2023/07/09 07:29:41;;;;;;;5.82;5.35;;;;;;;;;;5071708;28;20217;-73
2023/07/09 07:32:09;;;;;;;5.70;5.20;;;;;;;;;;5071421;28;20598;-73
2023/07/09 07:34:36;;;;;;;6.28;4.50;;;;;;;;;;5071520;28;20267;-75
2023/07/09 07:37:03;;;;;;;6.13;5.20;;;;;;;;;;5071414;28;20213;-75
2023/07/09 07:39:32;;;;;;;6.00;4.55;;;;;;;;;;5071632;28;20205;-75
2023/07/09 07:41:59;;;;;;;6.07;5.57;;;;;;;;;;5071736;28;20236;-75
2023/07/09 07:44:26;;;;;;;7.25;6.05;;;;;;;;;;5071538;28;20355;-75
2023/07/09 07:46:53;;;;;;;8.48;5.65;;;;;;;;;;5071533;28;20205;-75
2023/07/09 07:49:20;;;;;;;5.57;5.05;;;;;;;;;;5071476;28;20641;-74
2023/07/09 07:51:48;;;;;;;5.78;5.15;;;;;;;;;;5071367;28;20228;-75
2023/07/09 07:54:18;;;;;;;7.45;4.65;;;;;;;;;;5071167;28;20232;-75
2023/07/09 07:56:46;;;;;;;6.97;5.25;;;;;;;;;;5071306;28;20257;-75
2023/07/09 07:59:14;;;;;;;8.10;4.25;;;;;;;;;;5071172;28;20208;-75
2023/07/09 08:01:41;;;;;;;4.90;4.50;;;;;;;;;;5071308;28;20236;-75
2023/07/09 08:04:08;;;;;;;5.30;4.80;;;;;;;;;;5071848;28;20531;-75
2023/07/09 08:06:35;;;;;;;5.05;4.55;;;;;;;;;;5071437;28;20212;-75
2023/07/09 08:09:02;;;;;;;5.82;5.22;;;;;;;;;;5071469;28;20678;-75
2023/07/09 08:11:32;;;;;;;7.57;5.38;;;;;;;;;;5070790;28;20239;-75
2023/07/09 08:14:00;;;;;;;6.20;4.90;;;;;;;;;;5070898;28;20299;-75
2023/07/09 08:16:28;;;;;;;5.25;4.75;;;;;;;;;;5070954;28;20219;-75
2023/07/09 08:18:55;;;;;;;9.23;6.72;;;;;;;;;;5071142;28;20208;-75
2023/07/09 08:21:22;;;;;;;8.82;5.78;;;;;;;;;;5070704;28;20236;-75
2023/07/09 08:23:50;;;;;;;6.90;5.30;;;;;;;;;;5070970;28;20217;-75
2023/07/09 08:26:17;;;;;;;6.82;5.38;;;;;;;;;;5071100;28;20219;-75
2023/07/09 08:28:44;;;;;;;5.35;4.85;;;;;;;;;;5071913;28;20209;-73
2023/07/09 08:31:13;;;;;;;5.45;4.05;;;;;;;;;;5071913;28;20229;-75
2023/07/09 08:33:41;;;;;;;6.00;5.25;;;;;;;;;;5071851;28;20212;-75
2023/07/09 08:36:08;;;;;;;5.00;4.50;;;;;;;;;;5072165;28;20291;-75
2023/07/09 08:38:35;;;;;;;5.03;4.53;;;;;;;;;;5071659;28;20288;-75
2023/07/09 08:41:20;;;;;;;8.27;5.13;;;;;;;;;;5071968;28;20229;-75
2023/07/09 08:43:51;;;;;;;5.15;4.32;;;;;;;;;;5072126;28;20208;-75
2023/07/09 08:46:21;;;;;;;5.95;4.57;;;;;;;;;;5071749;28;20216;-75
2023/07/09 08:48:49;;;;;;;5.22;4.75;;;;;;;;;;5071728;28;20197;-74
2023/07/09 08:51:19;;;;;;;7.32;5.38;;;;;;;;;;5071852;28;20244;-75
2023/07/09 08:53:50;;;;;;;5.38;4.55;;;;;;;;;;5071730;28;20678;-75
2023/07/09 08:56:17;;;;;;;5.97;5.25;;;;;;;;;;5071432;28;20209;-75
2023/07/09 08:58:45;;;;;;;5.85;5.25;;;;;;;;;;5071485;28;20299;-75
2023/07/09 09:01:19;;;;;;;9.95;4.80;;;;;;;;;;5077463;28;20224;-75
2023/07/09 09:03:49;;;;;;;9.38;5.60;;;;;;;;;;5091922;28;20706;-75
2023/07/09 09:06:17;;;;;;;6.50;6.00;;;;;;;;;;5091111;28;20287;-74
2023/07/09 09:08:49;;;;;;;5.73;5.00;;;;;;;;;;5091241;28;20208;-75
2023/07/09 09:11:21;;;;;;;6.03;5.47;;;;;;;;;;5091406;28;20612;-75
2023/07/09 09:13:49;;;;;;;6.53;4.53;;;;;;;;;;5090963;28;20207;-75
2023/07/09 09:16:23;;;;;;;10.00;5.27;;;;;;;;;;5091415;28;20223;-75
2023/07/09 09:18:51;;;;;;;9.93;5.80;;;;;;;;;;5091221;28;20298;-75
2023/07/09 09:21:31;;;;;;;5.27;4.87;;;;;;;;;;5091629;28;20240;-75
2023/07/09 09:23:59;;;;;;;6.38;5.78;;;;;;;;;;5091392;28;20211;-75
2023/07/09 09:26:30;;;;;;;5.30;4.80;;;;;;;;;;5092155;28;20212;-75
2023/07/09 09:28:57;;;;;;;5.72;5.10;;;;;;;;;;5091957;28;20208;-75
2023/07/09 09:31:27;;;;;;;6.10;5.50;;;;;;;;;;5092043;28;20236;-75
2023/07/09 09:33:55;;;;;;;6.95;4.90;;;;;;;;;;5092392;28;20197;-75
2023/07/09 09:36:23;;;;;;;5.40;4.90;;;;;;;;;;5094293;28;20249;-75
2023/07/09 09:38:51;;;;;;;6.25;4.65;;;;;;;;;;5095864;28;20208;-75
2023/07/09 09:41:19;;;;;;;5.47;4.97;;;;;;;;;;5096042;28;20324;-75
2023/07/09 09:43:47;;;;;;;7.05;5.07;;;;;;;;;;5096076;28;20212;-75
2023/07/09 09:46:22;;;;;;;5.03;4.63;;;;;;;;;;5096007;28;20204;-75
2023/07/09 09:48:50;;;;;;;9.60;5.20;;;;;;;;;;5095884;28;20208;-75
2023/07/09 09:51:19;;;;;;;6.93;5.00;;;;;;;;;;5095775;28;20737;-75
2023/07/09 09:53:49;;;;;;;6.37;4.53;;;;;;;;;;5095963;28;20212;-75
2023/07/09 09:56:19;;;;;;;6.77;6.07;;;;;;;;;;5095631;28;20248;-74
2023/07/09 09:58:46;;;;;;;5.90;5.27;;;;;;;;;;5095367;28;20204;-75
2023/07/09 10:01:16;;;;;;;5.57;4.63;;;;;;;;;;5095435;28;20224;-74
2023/07/09 10:03:44;;;;;;;7.33;5.97;;;;;;;;;;5095540;28;20208;-75
2023/07/09 10:06:15;;;;;;;7.57;5.20;;;;;;;;;;5095390;28;20454;-75
2023/07/09 10:08:49;;;;;;;8.23;5.00;;;;;;;;;;5095362;28;20707;-75
2023/07/09 10:11:19;;;;;;;6.00;4.60;;;;;;;;;;5095579;28;20753;-74
2023/07/09 10:13:56;;;;;;;7.73;4.67;;;;;;;;;;5095350;28;20559;-74
2023/07/09 10:16:31;;;;;;;5.33;4.43;;;;;;;;;;5094755;28;20215;-74
2023/07/09 10:19:00;;;;;;;7.57;4.60;;;;;;;;;;5094964;28;20322;-74
2023/07/09 10:21:31;;;;;;;5.40;4.90;;;;;;;;;;5095161;28;20250;-74
2023/07/09 10:24:07;;;;;;;5.25;4.70;;;;;;;;;;5095022;28;20605;-74
2023/07/09 10:26:41;;;;;;;6.53;4.70;;;;;;;;;;5095113;28;20196;-75
2023/07/09 10:29:18;;;;;;;6.45;5.57;;;;;;;;;;5094478;28;20539;-75
2023/07/09 10:31:50;;;;;;;7.07;5.35;;;;;;;;;;5094124;28;20227;-74
2023/07/09 10:34:23;;;;;;;6.18;4.78;;;;;;;;;;5094482;28;20215;-74
2023/07/09 10:36:59;;;;;;;4.88;4.43;;;;;;;;;;5094717;28;20607;-74
2023/07/09 10:39:30;;;;;;;5.03;4.53;;;;;;;;;;5094484;28;20230;-74
2023/07/09 10:42:00;;;;;;;5.00;4.60;;;;;;;;;;5094346;28;20228;-74
2023/07/09 10:44:30;;;;;;;7.70;5.13;;;;;;;;;;5094286;28;20212;-74
2023/07/09 10:46:59;;;;;;;7.80;5.63;;;;;;;;;;5093070;28;20566;-74
2023/07/09 10:49:31;;;;;;;6.27;5.70;;;;;;;;;;5094215;28;20212;-74
2023/07/09 10:52:03;;;;;;;7.03;5.27;;;;;;;;;;5094298;28;20841;-74
2023/07/09 10:54:34;;;;;;;6.33;5.27;;;;;;;;;;5094149;28;20445;-74
2023/07/09 10:57:05;;;;;;;10.40;5.00;;;;;;;;;;5093829;28;20961;-74
2023/07/09 10:59:33;;;;;;;8.03;6.27;;;;;;;;;;5093925;28;20454;-74
2023/07/09 11:02:05;;;;;;;5.70;5.20;;;;;;;;;;5093711;28;20470;-74
2023/07/09 11:04:35;;;;;;;6.37;5.77;;;;;;;;;;5093947;28;20450;-74
2023/07/09 11:07:05;;;;;;;7.40;6.70;;;;;;;;;;5093483;28;20443;-74
2023/07/09 11:09:35;;;;;;;6.00;5.20;;;;;;;;;;5093528;28;20453;-74
2023/07/09 11:12:04;;;;;;;6.70;6.03;;;;;;;;;;5093623;28;20473;-74
2023/07/09 11:14:34;;;;;;;7.30;5.97;;;;;;;;;;5093594;28;20533;-74
2023/07/09 11:17:02;;;;;;;5.53;5.03;;;;;;;;;;5093537;28;20446;-74
2023/07/09 11:19:29;;;;;;;5.27;4.77;;;;;;;;;;5093345;28;20472;-74
2023/07/09 11:22:00;;;;;;;6.20;5.60;;;;;;;;;;5093662;28;20986;-74
2023/07/09 11:24:32;;;;;;;5.30;4.70;;;;;;;;;;5093332;28;20533;-74
2023/07/09 11:27:02;;;;;;;5.40;4.90;;;;;;;;;;5093495;28;20442;-74
2023/07/09 11:29:29;;;;;;;6.30;5.40;;;;;;;;;;5093360;28;20453;-74
2023/07/09 11:32:08;;;;;;;4.87;4.40;;;;;;;;;;5093512;28;20470;-73
2023/07/09 11:34:35;;;;;;;5.80;5.30;;;;;;;;;;5093266;28;20212;-74
2023/07/09 11:37:02;;;;;;;5.50;5.00;;;;;;;;;;5093276;28;20246;-74
2023/07/09 11:39:32;;;;;;;5.80;4.37;;;;;;;;;;5093035;28;20211;-74
2023/07/09 11:41:59;;;;;;;6.60;5.40;;;;;;;;;;5093549;28;20470;-74
2023/07/09 11:44:29;;;;;;;5.10;4.60;;;;;;;;;;5093101;28;20939;-73
2023/07/09 11:47:03;;;;;;;6.53;5.53;;;;;;;;;;5092805;28;20450;-74
2023/07/09 11:49:34;;;;;;;6.00;4.90;;;;;;;;;;5093201;28;20792;-74
2023/07/09 11:52:03;;;;;;;9.10;5.07;;;;;;;;;;5093021;28;20951;-74
2023/07/09 11:57:34;;;;;;;4.73;4.20;;;;;;;;;;5092737;28;20421;-74
2023/07/09 12:00:03;;;;;;;6.00;5.10;;;;;;;;;;5092706;28;20804;-74
2023/07/09 12:02:34;;;;;;;6.30;4.83;;;;;;;;;;5092834;28;20450;-74
2023/07/09 12:05:01;;;;;;;6.80;5.33;;;;;;;;;;5092801;28;20454;-74
2023/07/09 12:07:28;;;;;;;5.90;5.30;;;;;;;;;;5092595;28;20446;-74
2023/07/09 12:09:55;;;;;;;5.13;4.67;;;;;;;;;;5092533;28;20461;-74
2023/07/09 12:12:24;;;;;;;4.90;4.50;;;;;;;;;;5092299;28;20481;-74
2023/07/09 12:14:52;;;;;;;5.23;4.37;;;;;;;;;;5092808;28;20446;-74
2023/07/09 12:17:20;;;;;;;5.87;4.60;;;;;;;;;;5092539;28;20529;-74
2023/07/09 12:19:47;;;;;;;7.33;5.03;;;;;;;;;;5092416;28;20465;-74
2023/07/09 12:22:18;;;;;;;5.30;4.13;;;;;;;;;;5092346;28;20453;-74
2023/07/09 12:24:46;;;;;;;5.43;4.93;;;;;;;;;;5092318;28;20543;-74
2023/07/09 12:27:19;;;;;;;10.53;5.00;;;;;;;;;;5092159;28;20450;-74
2023/07/09 12:29:46;;;;;;;7.73;5.37;;;;;;;;;;5092346;28;20453;-74
2023/07/09 12:32:14;;;;;;;6.37;4.60;;;;;;;;;;5092124;28;20446;-74
2023/07/09 12:34:43;;;;;;;5.60;5.10;;;;;;;;;;5092271;28;20507;-74
2023/07/09 12:37:13;;;;;;;9.67;5.57;;;;;;;;;;5092025;28;20490;-74
2023/07/09 12:39:40;;;;;;;5.67;4.50;;;;;;;;;;5092387;28;20530;-74
2023/07/09 12:42:15;;;;;;;5.27;4.77;;;;;;;;;;5092122;28;20466;-74
2023/07/09 12:44:42;;;;;;;4.90;4.50;;;;;;;;;;5079613;28;20476;-74
2023/07/09 12:47:13;;;;;;;5.17;4.67;;;;;;;;;;5089443;28;20447;-73
2023/07/09 12:49:41;;;;;;;4.90;4.40;;;;;;;;;;5090213;28;20450;-74
2023/07/09 12:52:11;;;;;;;8.53;5.77;;;;;;;;;;5090548;28;20820;-74
2023/07/09 12:54:38;;;;;;;5.40;4.90;;;;;;;;;;5090418;28;20962;-74
2023/07/09 12:57:15;;;;;;;6.10;5.50;;;;;;;;;;5090344;28;20494;-74
2023/07/09 12:59:43;;;;;;;6.17;5.57;;;;;;;;;;5090270;28;20544;-75
2023/07/09 13:02:15;;;;;;;7.53;5.40;;;;;;;;;;5090687;28;20513;-74
2023/07/09 13:04:42;;;;;;;5.00;4.40;;;;;;;;;;5090256;28;20458;-74
2023/07/09 13:07:26;;;;;;;6.03;5.43;;;;;;;;;;5090314;28;20439;-74
2023/07/09 13:09:55;;;;;;;6.50;5.17;;;;;;;;;;5090362;28;20450;-74
2023/07/09 13:12:22;;;;;;;6.63;5.67;;;;;;;;;;5094069;28;20458;-74
2023/07/09 13:14:54;;;;;;;5.43;4.37;;;;;;;;;;5094343;28;20532;-74
2023/07/09 13:17:21;;;;;;;5.50;5.00;;;;;;;;;;5089925;28;20487;-74
2023/07/09 13:19:49;;;;;;;7.43;5.00;;;;;;;;;;5074966;28;20475;-74
2023/07/09 13:22:18;;;;;;;6.87;5.37;;;;;;;;;;5093162;28;20458;-74
2023/07/09 13:24:46;;;;;;;5.07;4.57;;;;;;;;;;5095715;28;20902;-74
2023/07/09 13:27:14;;;;;;;8.80;5.03;;;;;;;;;;5095326;28;20558;-74
2023/07/09 13:29:42;;;;;;;6.03;5.00;;;;;;;;;;5095603;28;20454;-74
2023/07/09 13:32:10;;;;;;;6.73;5.00;;;;;;;;;;5095462;28;20567;-74
2023/07/09 13:34:39;;;;;;;5.60;4.97;;;;;;;;;;5094980;28;20488;-74
2023/07/09 13:37:06;;;;;;;7.00;4.93;;;;;;;;;;5095341;28;20859;-74
2023/07/09 13:39:33;;;;;;;7.30;4.97;;;;;;;;;;5095644;28;20455;-74
2023/07/09 13:42:02;;;;;;;9.53;6.53;;;;;;;;;;5095425;28;20927;-74
2023/07/09 13:44:31;;;;;;;6.30;5.70;;;;;;;;;;5095306;28;20446;-74
2023/07/09 13:46:58;;;;;;;8.17;5.47;;;;;;;;;;5095223;28;20441;-74
2023/07/09 13:49:27;;;;;;;7.30;4.80;;;;;;;;;;5095194;28;20446;-74
2023/07/09 13:51:57;;;;;;;5.73;4.67;;;;;;;;;;5095231;28;20531;-75
2023/07/09 13:54:26;;;;;;;5.73;4.80;;;;;;;;;;5095172;28;20454;-74
2023/07/09 13:56:53;;;;;;;6.93;5.27;;;;;;;;;;5095224;28;20493;-74
2023/07/09 13:59:23;;;;;;;7.00;5.00;;;;;;;;;;5095040;28;20481;-74
2023/07/09 14:01:51;;;;;;;6.10;4.17;;;;;;;;;;5095879;28;20598;-75
2023/07/09 14:04:18;;;;;;;5.20;4.70;;;;;;;;;;5094892;28;20461;-74
2023/07/09 14:06:46;;;;;;;5.93;5.33;;;;;;;;;;5080671;28;20465;-74
2023/07/09 14:09:13;;;;;;;5.77;5.23;;;;;;;;;;5074803;28;20455;-74
2023/07/09 14:11:43;;;;;;;5.93;4.63;;;;;;;;;;5074492;28;20467;-74
2023/07/09 14:14:17;;;;;;;5.63;4.73;;;;;;;;;;5074461;28;20464;-74
2023/07/09 14:16:46;;;;;;;7.67;5.37;;;;;;;;;;5074397;28;20486;-74
2023/07/09 14:19:14;;;;;;;7.33;5.00;;;;;;;;;;5074535;28;20455;-74
2023/07/09 14:21:41;;;;;;;5.80;5.20;;;;;;;;;;5074151;28;20491;-74
2023/07/09 14:24:17;;;;;;;8.00;5.10;;;;;;;;;;5074811;28;20485;-74
2023/07/09 14:26:44;;;;;;;6.70;5.13;;;;;;;;;;5074373;28;20447;-74
2023/07/09 14:29:13;;;;;;;5.33;4.83;;;;;;;;;;5074225;28;20455;-74
2023/07/09 14:31:41;;;;;;;6.57;5.50;;;;;;;;;;5074152;28;20480;-74
2023/07/09 14:34:17;;;;;;;6.70;5.97;;;;;;;;;;5074268;28;20967;-74
2023/07/09 14:36:44;;;;;;;8.90;6.33;;;;;;;;;;5074312;28;20486;-74
2023/07/09 14:39:12;;;;;;;5.20;4.70;;;;;;;;;;5074214;28;20893;-74
2023/07/09 14:41:40;;;;;;;4.83;4.43;;;;;;;;;;5073950;28;20509;-74
2023/07/09 14:44:17;;;;;;;7.20;5.33;;;;;;;;;;5074183;28;20436;-74
2023/07/09 14:46:44;;;;;;;5.10;4.43;;;;;;;;;;5074277;28;20773;-74
2023/07/09 14:49:12;;;;;;;5.40;4.27;;;;;;;;;;5073999;28;20451;-74
2023/07/09 14:51:39;;;;;;;6.07;4.90;;;;;;;;;;5073858;28;20980;-75